sensor_id;sensor_type;location;lat;lon;timestamp;pressure;altitude;pressure_sealevel;temperature;humidity
57904;BME280;43720;47.462;19.030;2024-01-25T04:57:17;100575.06;;;8.36;74.61
57904;BME280;43720;47.462;19.030;2024-01-25T05:00:21;100551.88;;;8.44;74.53
57904;BME280;43720;47.462;19.030;2024-01-25T05:03:24;100559.63;;;8.41;74.63
57904;BME280;43720;47.462;19.030;2024-01-25T05:06:26;100573.38;;;8.37;74.79
57904;BME280;43720;47.462;19.030;2024-01-25T05:09:29;100556.16;;;8.40;74.31
57904;BME280;43720;47.462;19.030;2024-01-25T05:12:31;100544.66;;;8.35;74.98
57904;BME280;43720;47.462;19.030;2024-01-25T05:15:34;100565.47;;;8.33;74.76
57904;BME280;43720;47.462;19.030;2024-01-25T05:18:36;100573.97;;;8.26;75.34
57904;BME280;43720;47.462;19.030;2024-01-25T05:21:39;100562.81;;;8.32;74.53
57904;BME280;43720;47.462;19.030;2024-01-25T05:24:42;100558.34;;;8.26;75.02
57904;BME280;43720;47.462;19.030;2024-01-25T05:27:44;100548.16;;;8.36;74.52
57904;BME280;43720;47.462;19.030;2024-01-25T05:30:47;100562.13;;;8.38;74.28
57904;BME280;43720;47.462;19.030;2024-01-25T05:33:49;100549.03;;;8.36;73.78
57904;BME280;43720;47.462;19.030;2024-01-25T05:36:52;100552.69;;;8.41;73.21
57904;BME280;43720;47.462;19.030;2024-01-25T05:39:54;100565.63;;;8.38;73.62
57904;BME280;43720;47.462;19.030;2024-01-25T05:42:56;100581.19;;;8.37;74.23
57904;BME280;43720;47.462;19.030;2024-01-25T05:45:59;100572.22;;;8.25;75.45
57904;BME280;43720;47.462;19.030;2024-01-25T05:49:04;100594.62;;;8.20;75.96
57904;BME280;43720;47.462;19.030;2024-01-25T05:52:07;100586.03;;;8.24;76.36
57904;BME280;43720;47.462;19.030;2024-01-25T05:55:09;100595.78;;;8.31;76.03
57904;BME280;43720;47.462;19.030;2024-01-25T05:58:12;100586.22;;;8.30;75.97
57904;BME280;43720;47.462;19.030;2024-01-25T06:01:14;100593.72;;;8.18;76.78
57904;BME280;43720;47.462;19.030;2024-01-25T06:04:17;100578.03;;;8.17;77.32
57904;BME280;43720;47.462;19.030;2024-01-25T06:07:19;100591.78;;;8.11;77.61
57904;BME280;43720;47.462;19.030;2024-01-25T06:10:23;100579.69;;;8.13;77.55
57904;BME280;43720;47.462;19.030;2024-01-25T06:13:25;100587.44;;;8.12;77.94
57904;BME280;43720;47.462;19.030;2024-01-25T06:16:27;100608.50;;;8.19;77.70
57904;BME280;43720;47.462;19.030;2024-01-25T06:19:30;100587.56;;;8.16;77.51
57904;BME280;43720;47.462;19.030;2024-01-25T06:22:33;100585.50;;;8.04;79.06
57904;BME280;43720;47.462;19.030;2024-01-25T06:25:35;100592.63;;;8.10;78.34
57904;BME280;43720;47.462;19.030;2024-01-25T06:28:38;100591.81;;;8.13;78.21
57904;BME280;43720;47.462;19.030;2024-01-25T06:31:43;100602.84;;;8.04;78.64
57904;BME280;43720;47.462;19.030;2024-01-25T06:34:46;100593.16;;;7.98;78.84
57904;BME280;43720;47.462;19.030;2024-01-25T06:37:48;100585.38;;;8.00;79.47
57904;BME280;43720;47.462;19.030;2024-01-25T06:40:51;100594.88;;;7.98;79.50
57904;BME280;43720;47.462;19.030;2024-01-25T06:43:53;100604.44;;;7.99;79.04
57904;BME280;43720;47.462;19.030;2024-01-25T06:46:56;100587.06;;;7.98;79.38
57904;BME280;43720;47.462;19.030;2024-01-25T06:49:58;100602.69;;;7.98;78.93
57904;BME280;43720;47.462;19.030;2024-01-25T06:53:02;100619.87;;;7.93;79.50
57904;BME280;43720;47.462;19.030;2024-01-25T06:56:04;100611.31;;;7.97;78.22
57904;BME280;43720;47.462;19.030;2024-01-25T06:59:07;100644.25;;;7.95;78.55
57904;BME280;43720;47.462;19.030;2024-01-25T07:02:11;100634.84;;;8.00;76.68
57904;BME280;43720;47.462;19.030;2024-01-25T07:05:14;100657.50;;;8.02;77.48
57904;BME280;43720;47.462;19.030;2024-01-25T07:08:18;100636.69;;;8.04;76.94
57904;BME280;43720;47.462;19.030;2024-01-25T07:11:21;100610.72;;;8.05;76.30
57904;BME280;43720;47.462;19.030;2024-01-25T07:14:23;100612.59;;;8.11;75.26
57904;BME280;43720;47.462;19.030;2024-01-25T07:17:26;100595.69;;;8.27;74.02
57904;BME280;43720;47.462;19.030;2024-01-25T07:20:29;100589.78;;;8.32;72.64
57904;BME280;43720;47.462;19.030;2024-01-25T07:23:33;100567.34;;;8.38;72.75
57904;BME280;43720;47.462;19.030;2024-01-25T07:26:36;100578.66;;;8.38;72.67
57904;BME280;43720;47.462;19.030;2024-01-25T07:29:39;100575.16;;;8.38;72.38
57904;BME280;43720;47.462;19.030;2024-01-25T07:32:41;100547.50;;;8.43;71.91
57904;BME280;43720;47.462;19.030;2024-01-25T07:35:46;100554.63;;;8.48;71.51
57904;BME280;43720;47.462;19.030;2024-01-25T07:38:51;100555.63;;;8.55;70.23
57904;BME280;43720;47.462;19.030;2024-01-25T07:41:55;100559.88;;;8.51;71.42
57904;BME280;43720;47.462;19.030;2024-01-25T07:44:58;100569.41;;;8.51;70.52
57904;BME280;43720;47.462;19.030;2024-01-25T07:48:03;100585.06;;;8.51;71.53
57904;BME280;43720;47.462;19.030;2024-01-25T07:51:16;100586.06;;;8.56;70.42
57904;BME280;43720;47.462;19.030;2024-01-25T07:54:18;100613.87;;;8.57;69.85
57904;BME280;43720;47.462;19.030;2024-01-25T07:57:20;100615.81;;;8.64;68.35
57904;BME280;43720;47.462;19.030;2024-01-25T08:00:23;100644.72;;;8.73;67.91
57904;BME280;43720;47.462;19.030;2024-01-25T08:03:26;100619.03;;;8.89;65.05
57904;BME280;43720;47.462;19.030;2024-01-25T08:06:28;100615.81;;;8.99;64.51
57904;BME280;43720;47.462;19.030;2024-01-25T08:09:30;100638.62;;;9.06;63.61
57904;BME280;43720;47.462;19.030;2024-01-25T08:12:33;100624.94;;;9.16;62.29
57904;BME280;43720;47.462;19.030;2024-01-25T08:15:35;100636.59;;;9.30;59.92
57904;BME280;43720;47.462;19.030;2024-01-25T08:18:38;100649.53;;;9.27;60.97
57904;BME280;43720;47.462;19.030;2024-01-25T08:21:40;100629.78;;;9.37;61.92
57904;BME280;43720;47.462;19.030;2024-01-25T08:24:43;100642.19;;;9.47;63.84
57904;BME280;43720;47.462;19.030;2024-01-25T08:27:46;100626.59;;;9.49;60.33
57904;BME280;43720;47.462;19.030;2024-01-25T08:30:49;100629.03;;;9.43;62.25
57904;BME280;43720;47.462;19.030;2024-01-25T08:33:51;100628.19;;;9.44;62.87
57904;BME280;43720;47.462;19.030;2024-01-25T08:36:54;100627.31;;;9.43;62.25
57904;BME280;43720;47.462;19.030;2024-01-25T08:39:56;100641.31;;;9.48;62.86
57904;BME280;43720;47.462;19.030;2024-01-25T08:42:59;100624.09;;;9.55;62.96
57904;BME280;43720;47.462;19.030;2024-01-25T08:46:01;100631.13;;;9.59;63.21
57904;BME280;43720;47.462;19.030;2024-01-25T08:49:04;100628.62;;;9.64;63.14
57904;BME280;43720;47.462;19.030;2024-01-25T08:52:11;100617.22;;;9.60;63.92
57904;BME280;43720;47.462;19.030;2024-01-25T08:55:14;100629.38;;;9.58;62.73
57904;BME280;43720;47.462;19.030;2024-01-25T08:58:16;100632.25;;;9.69;62.76
57904;BME280;43720;47.462;19.030;2024-01-25T09:01:19;100645.91;;;9.57;64.64
57904;BME280;43720;47.462;19.030;2024-01-25T09:04:21;100664.28;;;9.63;62.47
57904;BME280;43720;47.462;19.030;2024-01-25T09:07:27;100675.34;;;9.91;64.62
57904;BME280;43720;47.462;19.030;2024-01-25T09:10:29;100651.13;;;9.96;61.04
57904;BME280;43720;47.462;19.030;2024-01-25T09:13:32;100683.12;;;9.88;61.40
57904;BME280;43720;47.462;19.030;2024-01-25T09:16:46;100671.84;;;9.90;61.26
57904;BME280;43720;47.462;19.030;2024-01-25T09:19:49;100689.94;;;9.81;61.44
57904;BME280;43720;47.462;19.030;2024-01-25T09:22:52;100703.88;;;9.82;60.81
57904;BME280;43720;47.462;19.030;2024-01-25T09:25:57;100693.28;;;9.75;61.73
57904;BME280;43720;47.462;19.030;2024-01-25T09:29:00;100693.28;;;9.75;61.94
57904;BME280;43720;47.462;19.030;2024-01-25T09:32:02;100700.28;;;9.76;61.44
57904;BME280;43720;47.462;19.030;2024-01-25T09:35:05;100689.97;;;9.83;61.95
57904;BME280;43720;47.462;19.030;2024-01-25T09:38:08;100700.28;;;9.76;61.49
57904;BME280;43720;47.462;19.030;2024-01-25T09:41:11;100684.53;;;9.72;61.67
57904;BME280;43720;47.462;19.030;2024-01-25T09:44:13;100695.06;;;9.76;62.55
57904;BME280;43720;47.462;19.030;2024-01-25T09:47:16;100721.22;;;9.79;62.91
57904;BME280;43720;47.462;19.030;2024-01-25T09:50:19;100710.59;;;10.10;60.83
57904;BME280;43720;47.462;19.030;2024-01-25T09:53:22;100705.00;;;10.31;61.91
57904;BME280;43720;47.462;19.030;2024-01-25T09:56:26;100686.94;;;10.44;60.98
57904;BME280;43720;47.462;19.030;2024-01-25T09:59:31;100689.56;;;10.44;59.84
57904;BME280;43720;47.462;19.030;2024-01-25T10:02:34;100724.97;;;10.28;59.93
57904;BME280;43720;47.462;19.030;2024-01-25T10:05:36;100717.81;;;10.21;59.25
57904;BME280;43720;47.462;19.030;2024-01-25T10:08:39;100727.28;;;10.16;59.48
57904;BME280;43720;47.462;19.030;2024-01-25T10:11:46;100708.81;;;10.07;60.30
57904;BME280;43720;47.462;19.030;2024-01-25T10:15:00;100694.19;;;10.15;59.71
57904;BME280;43720;47.462;19.030;2024-01-25T10:18:03;100720.12;;;10.08;60.88
57904;BME280;43720;47.462;19.030;2024-01-25T10:21:25;100710.47;;;10.03;61.52
57904;BME280;43720;47.462;19.030;2024-01-25T10:24:29;100701.13;;;10.15;61.19
57904;BME280;43720;47.462;19.030;2024-01-25T10:27:32;100701.44;;;10.28;60.38
57904;BME280;43720;47.462;19.030;2024-01-25T10:30:36;100704.41;;;10.06;61.18
57904;BME280;43720;47.462;19.030;2024-01-25T10:33:39;100688.69;;;10.03;59.98
57904;BME280;43720;47.462;19.030;2024-01-25T10:36:42;100698.69;;;10.22;60.47
57904;BME280;43720;47.462;19.030;2024-01-25T10:39:46;100698.75;;;10.25;59.13
57904;BME280;43720;47.462;19.030;2024-01-25T10:42:50;100680.63;;;10.32;59.89
57904;BME280;43720;47.462;19.030;2024-01-25T10:45:54;100691.88;;;10.29;59.46
57904;BME280;43720;47.462;19.030;2024-01-25T10:49:01;100681.41;;;10.27;59.19
57904;BME280;43720;47.462;19.030;2024-01-25T10:52:05;100684.03;;;10.29;59.01
57904;BME280;43720;47.462;19.030;2024-01-25T10:55:09;100673.56;;;10.27;58.98
57904;BME280;43720;47.462;19.030;2024-01-25T10:58:14;100697.66;;;10.16;58.73
57904;BME280;43720;47.462;19.030;2024-01-25T11:01:17;100684.34;;;10.03;60.71
57904;BME280;43720;47.462;19.030;2024-01-25T11:04:20;100674.00;;;10.08;58.07
57904;BME280;43720;47.462;19.030;2024-01-25T11:07:23;100689.84;;;10.17;58.96
57904;BME280;43720;47.462;19.030;2024-01-25T11:10:27;100683.81;;;10.20;58.17
57904;BME280;43720;47.462;19.030;2024-01-25T11:13:31;100683.81;;;10.20;56.92
57904;BME280;43720;47.462;19.030;2024-01-25T11:16:35;100706.41;;;10.18;56.61
57904;BME280;43720;47.462;19.030;2024-01-25T11:19:38;100686.38;;;10.17;55.95
57904;BME280;43720;47.462;19.030;2024-01-25T11:22:44;100685.56;;;10.21;57.07
57904;BME280;43720;47.462;19.030;2024-01-25T11:25:47;100677.50;;;10.10;57.69
57904;BME280;43720;47.462;19.030;2024-01-25T11:28:50;100681.03;;;10.12;57.07
57904;BME280;43720;47.462;19.030;2024-01-25T11:31:53;100675.91;;;10.15;56.88
57904;BME280;43720;47.462;19.030;2024-01-25T11:34:59;100679.59;;;10.25;56.38
57904;BME280;43720;47.462;19.030;2024-01-25T11:38:02;100675.09;;;10.19;56.83
57904;BME280;43720;47.462;19.030;2024-01-25T11:41:04;100667.19;;;10.15;57.90
57904;BME280;43720;47.462;19.030;2024-01-25T11:44:06;100662.03;;;10.19;57.91
57904;BME280;43720;47.462;19.030;2024-01-25T11:47:09;100660.94;;;10.08;58.26
57904;BME280;43720;47.462;19.030;2024-01-25T11:50:12;100654.16;;;10.18;57.66
57904;BME280;43720;47.462;19.030;2024-01-25T11:53:15;100635.06;;;10.20;57.92
57904;BME280;43720;47.462;19.030;2024-01-25T11:56:21;100658.56;;;10.20;56.54
57904;BME280;43720;47.462;19.030;2024-01-25T11:59:25;100641.72;;;10.06;57.88
57904;BME280;43720;47.462;19.030;2024-01-25T12:02:28;100666.06;;;10.03;57.37
57904;BME280;43720;47.462;19.030;2024-01-25T12:05:33;100680.03;;;10.05;58.27
57904;BME280;43720;47.462;19.030;2024-01-25T12:08:36;100660.87;;;10.07;57.27
57904;BME280;43720;47.462;19.030;2024-01-25T12:11:41;100679.53;;;10.23;57.44
57904;BME280;43720;47.462;19.030;2024-01-25T12:14:44;100704.13;;;10.30;55.37
57904;BME280;43720;47.462;19.030;2024-01-25T12:17:46;100670.03;;;10.25;55.46
57904;BME280;43720;47.462;19.030;2024-01-25T12:20:50;100695.41;;;10.31;54.88
57904;BME280;43720;47.462;19.030;2024-01-25T12:23:52;100696.34;;;10.35;55.17
57904;BME280;43720;47.462;19.030;2024-01-25T12:26:55;100708.09;;;10.55;54.01
57904;BME280;43720;47.462;19.030;2024-01-25T12:29:57;100713.16;;;10.46;54.32
57904;BME280;43720;47.462;19.030;2024-01-25T12:33:00;100704.19;;;10.35;55.34
57904;BME280;43720;47.462;19.030;2024-01-25T12:36:03;100720.38;;;10.18;54.84
57904;BME280;43720;47.462;19.030;2024-01-25T12:39:09;100666.91;;;10.02;55.74
57904;BME280;43720;47.462;19.030;2024-01-25T12:42:17;100701.75;;;10.03;56.08
57904;BME280;43720;47.462;19.030;2024-01-25T12:45:20;100714.75;;;10.00;55.50
57904;BME280;43720;47.462;19.030;2024-01-25T12:48:23;100685.41;;;10.12;54.97
57904;BME280;43720;47.462;19.030;2024-01-25T12:51:26;100683.84;;;10.21;54.00
57904;BME280;43720;47.462;19.030;2024-01-25T12:54:39;100685.56;;;10.19;54.40
57904;BME280;43720;47.462;19.030;2024-01-25T12:57:41;100672.16;;;10.04;56.08
57904;BME280;43720;47.462;19.030;2024-01-25T13:00:45;100670.28;;;9.97;55.50
57904;BME280;43720;47.462;19.030;2024-01-25T13:03:48;100673.84;;;10.00;54.08
57904;BME280;43720;47.462;19.030;2024-01-25T13:06:53;100656.34;;;9.98;54.53
57904;BME280;43720;47.462;19.030;2024-01-25T13:10:02;100665.06;;;9.98;54.93
57904;BME280;43720;47.462;19.030;2024-01-25T13:13:05;100672.97;;;10.00;54.56
57904;BME280;43720;47.462;19.030;2024-01-25T13:16:07;100666.53;;;9.86;55.22
57904;BME280;43720;47.462;19.030;2024-01-25T13:19:10;100666.63;;;9.90;55.71
57904;BME280;43720;47.462;19.030;2024-01-25T13:22:14;100670.09;;;9.88;56.08
57904;BME280;43720;47.462;19.030;2024-01-25T13:25:16;100647.47;;;9.90;56.86
57904;BME280;43720;47.462;19.030;2024-01-25T13:28:19;100659.66;;;9.89;55.72
57904;BME280;43720;47.462;19.030;2024-01-25T13:31:24;100662.25;;;9.88;55.62
57904;BME280;43720;47.462;19.030;2024-01-25T13:34:26;100665.59;;;9.82;56.82
57904;BME280;43720;47.462;19.030;2024-01-25T13:37:29;100669.75;;;9.72;56.46
57904;BME280;43720;47.462;19.030;2024-01-25T13:40:34;100659.34;;;9.75;56.79
57904;BME280;43720;47.462;19.030;2024-01-25T13:43:37;100648.69;;;9.65;56.41
57904;BME280;43720;47.462;19.030;2024-01-25T13:46:39;100677.59;;;9.74;56.04
57904;BME280;43720;47.462;19.030;2024-01-25T13:49:42;100668.19;;;9.80;56.08
57904;BME280;43720;47.462;19.030;2024-01-25T13:52:44;100648.94;;;9.77;56.37
57904;BME280;43720;47.462;19.030;2024-01-25T13:55:46;100650.72;;;9.79;56.84
57904;BME280;43720;47.462;19.030;2024-01-25T13:58:48;100651.50;;;9.75;56.59
57904;BME280;43720;47.462;19.030;2024-01-25T14:01:51;100655.75;;;9.69;56.91
57904;BME280;43720;47.462;19.030;2024-01-25T14:04:54;100662.62;;;9.65;56.90
57904;BME280;43720;47.462;19.030;2024-01-25T14:07:56;100668.56;;;9.60;56.69
57904;BME280;43720;47.462;19.030;2024-01-25T14:10:59;100663.50;;;9.67;56.88
57904;BME280;43720;47.462;19.030;2024-01-25T14:14:01;100673.91;;;9.64;56.56
57904;BME280;43720;47.462;19.030;2024-01-25T14:17:04;100686.59;;;9.49;58.23
57904;BME280;43720;47.462;19.030;2024-01-25T14:20:06;100682.09;;;9.43;58.46
57904;BME280;43720;47.462;19.030;2024-01-25T14:23:11;100673.41;;;9.43;58.06
57904;BME280;43720;47.462;19.030;2024-01-25T14:26:13;100690.91;;;9.48;57.55
57904;BME280;43720;47.462;19.030;2024-01-25T14:29:16;100693.22;;;9.36;57.62
57904;BME280;43720;47.462;19.030;2024-01-25T14:32:18;100706.34;;;9.39;57.14
57904;BME280;43720;47.462;19.030;2024-01-25T14:35:24;100710.69;;;9.39;57.71
57904;BME280;43720;47.462;19.030;2024-01-25T14:38:30;100727.97;;;9.34;56.68
57904;BME280;43720;47.462;19.030;2024-01-25T14:41:33;100726.28;;;9.36;57.81
57904;BME280;43720;47.462;19.030;2024-01-25T14:44:38;100724.41;;;9.30;56.26
57904;BME280;43720;47.462;19.030;2024-01-25T14:47:40;100725.97;;;9.23;56.48
57904;BME280;43720;47.462;19.030;2024-01-25T14:50:43;100744.91;;;9.16;58.05
57904;BME280;43720;47.462;19.030;2024-01-25T14:53:45;100754.25;;;9.08;57.17
57904;BME280;43720;47.462;19.030;2024-01-25T14:56:47;100745.53;;;9.06;58.34
57904;BME280;43720;47.462;19.030;2024-01-25T14:59:54;100756.63;;;8.99;58.06
57904;BME280;43720;47.462;19.030;2024-01-25T15:02:56;100771.25;;;8.94;58.18
57904;BME280;43720;47.462;19.030;2024-01-25T15:05:59;100749.50;;;8.92;59.08
57904;BME280;43720;47.462;19.030;2024-01-25T15:09:02;100750.38;;;8.92;57.55
57904;BME280;43720;47.462;19.030;2024-01-25T15:12:05;100754.78;;;8.95;57.51
57904;BME280;43720;47.462;19.030;2024-01-25T15:15:08;100748.66;;;8.94;58.31
57904;BME280;43720;47.462;19.030;2024-01-25T15:18:10;100768.50;;;8.88;59.32
57904;BME280;43720;47.462;19.030;2024-01-25T15:21:13;100742.34;;;8.85;59.06
57904;BME280;43720;47.462;19.030;2024-01-25T15:24:16;100755.47;;;8.88;58.62
57904;BME280;43720;47.462;19.030;2024-01-25T15:27:18;100757.69;;;8.74;59.43
57904;BME280;43720;47.462;19.030;2024-01-25T15:30:21;100762.66;;;8.66;60.61
57904;BME280;43720;47.462;19.030;2024-01-25T15:33:23;100760.03;;;8.65;60.51
57904;BME280;43720;47.462;19.030;2024-01-25T15:36:26;100766.88;;;8.61;59.66
57904;BME280;43720;47.462;19.030;2024-01-25T15:39:28;100762.53;;;8.62;60.53
57904;BME280;43720;47.462;19.030;2024-01-25T15:42:30;100752.09;;;8.60;60.13
57904;BME280;43720;47.462;19.030;2024-01-25T15:45:33;100775.22;;;8.49;60.18
57904;BME280;43720;47.462;19.030;2024-01-25T15:48:36;100759.59;;;8.49;60.19
57904;BME280;43720;47.462;19.030;2024-01-25T15:51:38;100765.69;;;8.50;60.40
57904;BME280;43720;47.462;19.030;2024-01-25T15:54:41;100754.16;;;8.42;61.17
57904;BME280;43720;47.462;19.030;2024-01-25T15:57:43;100753.31;;;8.43;59.90
57904;BME280;43720;47.462;19.030;2024-01-25T16:00:46;100750.56;;;8.38;61.23
57904;BME280;43720;47.462;19.030;2024-01-25T16:03:48;100755.63;;;8.33;60.86
57904;BME280;43720;47.462;19.030;2024-01-25T16:06:51;100757.66;;;8.42;60.57
57904;BME280;43720;47.462;19.030;2024-01-25T16:09:54;100760.16;;;8.39;61.51
57904;BME280;43720;47.462;19.030;2024-01-25T16:12:56;100759.97;;;8.33;60.00
57904;BME280;43720;47.462;19.030;2024-01-25T16:15:59;100749.53;;;8.33;60.29
57904;BME280;43720;47.462;19.030;2024-01-25T16:19:01;100746.06;;;8.32;60.00
57904;BME280;43720;47.462;19.030;2024-01-25T16:22:06;100745.91;;;8.28;60.72
57904;BME280;43720;47.462;19.030;2024-01-25T16:25:10;100734.66;;;8.29;60.60
